Montpelier, Maryland
Current Conditions -  °F | °C
As of 7:39 AM on Saturday 25 Oct 2014 (Local Time) from KFME Reporting Station
Clear Clear  
Wind Chill: 36°   Ceiling: Unl
Heat Index: 36°   Visibility: 7mi
Dew Point: 34°   Wind: 0mph
Humidity: 93%   Direction: NA
Pressure: 29.98"   Gusts: NA
Location:  39.0656°N, 76.8397°W
Report Text: KFME 251139Z AUTO 00000KT 7SM CLR 02/01 A2998 RMK AO1
Loading
Personal Weather Stations






























Interactive Weather Map
Tropical Storm Tracking
New forecast layout! Learn more

10-Day Weather Forecast

Advertisements
Track Severe Weather on mobile